Lincoln, NE (68512)

11:39 AM CST on March 01, 2015 (GMT -0600)
Southwood | Change Station
CLOSE
Current Station
Personal Weather Station
Location: Lincoln, NE
Elevation: 1247 ft
Nearby Weather Stations

Elev 1247 ft 40.76 °N, 96.69 °W | Updated 3 seconds ago

Clear
Clear
34.8 °F
Feels Like 32 °F
N
3.1
Wind Variable Wind from NNW
Gusts 5.4 mph

Today
High -- | Low -- °F
--% Chance of Precip.
Yesterday
High -- | Low -- °F
Precip. -- in
7:01 AM 6:17 PM
Waxing Gibbous, 86% visible
Pressure 30.45 in
Visibility 10.0 miles
Clouds Clear
Windchill 32 °F
Dew Point 16 °F
Humidity 45%
Rainfall 0.00 in
Snow Depth Not available.
UV 4 out of 12
Pollen .80 out of 12
Air Quality Not available.
Flu Activity Not available.
METAR KLNK 011654Z 34005KT 10SM CLR M02/M08 A3040 RMK AO2 SLP312 T10171078

More Conditions Fewer Conditions

Pressure 30.45 in
Visibility 10.0 miles
Clouds Clear
Windchill 32 °F
Dew Point 16 °F
Humidity 45%
Rainfall 0.00 in
Snow Depth Not available.
UV 4 out of 12
Pollen .80 out of 12
Air Quality Not available.
Flu Activity Not available.
METAR KLNK 011654Z 34005KT 10SM CLR M02/M08 A3040 RMK AO2 SLP312 T10171078

More Conditions Fewer Conditions

10-Day Weather Forecast

Almanac

Astronomy

Mar. 01, 2015 Rise Set
Actual Time
Civil Twilight
Nautical Twilight
Astronomical Twilight
Moon
Length of Visible Light
Length of Day
Tomorrow will be .
, % of the Moon is Illuminated

Today's Extremes

State Highs State Lows

Community

WunderPhotos

Upload Photos

1,801,478 photos uploaded!

WunderBlogs® & News

Nearby

Air Quality

  Air Quality AQ Index Pollutant
Not available.

Snow Depth

Station Depth Elevation

Earthquake Activity

City Distance Mag. Time & Date
Minimum magnitude displayed is 2.5.

Coastal Water Temperatures

Place Temperature

Nearby Weather Stations